createdAt,value
2022-09-16T00:02:27.149Z,98356.99
2022-09-16T00:04:59.037Z,98364.05
2022-09-16T00:07:32.944Z,98357.22
2022-09-16T00:10:06.472Z,98363.31
2022-09-16T00:12:38.588Z,98360.58
2022-09-16T00:15:11.776Z,98358.43
2022-09-16T00:17:43.765Z,98364.89
2022-09-16T00:20:15.685Z,98360.02
2022-09-16T00:22:47.648Z,98351.80
2022-09-16T00:25:19.675Z,98353.34
2022-09-16T00:27:51.787Z,98351.91
2022-09-16T00:30:23.839Z,98361.45
2022-09-16T00:32:56.188Z,98351.80
2022-09-16T00:35:28.299Z,98353.69
2022-09-16T00:38:00.260Z,98358.09
2022-09-16T00:40:32.845Z,98361.67
2022-09-16T00:43:04.910Z,98360.13
2022-09-16T00:45:36.920Z,98360.13
2022-09-16T00:48:12.687Z,98360.02
2022-09-16T00:50:51.374Z,98356.20
2022-09-16T00:53:26.262Z,98358.22
2022-09-16T00:56:01.483Z,98362.53
2022-09-16T00:58:45.685Z,98369.34
2022-09-16T01:01:17.717Z,98369.46
2022-09-16T01:03:52.687Z,98363.01
2022-09-16T01:06:27.666Z,98357.98
2022-09-16T01:09:00.105Z,98358.48
2022-09-16T01:11:32.386Z,98352.88
2022-09-16T01:14:23.513Z,98347.39
2022-09-16T01:17:01.442Z,98341.75
2022-09-16T01:19:36.452Z,98340.69
2022-09-16T01:22:29.070Z,98338.52
2022-09-16T01:25:19.051Z,98329.36
2022-09-16T01:27:59.956Z,98331.48
2022-09-16T01:30:56.241Z,98332.44
2022-09-16T01:33:33.915Z,98334.25
2022-09-16T01:36:08.809Z,98337.80
2022-09-16T01:39:01.898Z,98339.61
2022-09-16T01:41:54.802Z,98337.91
2022-09-16T01:44:47.346Z,98341.38
2022-09-16T01:47:41.527Z,98345.67
2022-09-16T01:50:47.736Z,98343.89
2022-09-16T01:53:25.368Z,98340.54
2022-09-16T01:56:02.847Z,98337.20
2022-09-16T01:58:57.021Z,98338.87
2022-09-16T02:01:34.631Z,98334.58
2022-09-16T02:04:15.438Z,98338.98
2022-09-16T02:06:49.325Z,98330.03
2022-09-16T02:09:24.305Z,98333.02
2022-09-16T02:11:59.122Z,98333.27
2022-09-16T02:14:33.084Z,98330.66
2022-09-16T02:17:10.802Z,98329.94
2022-09-16T02:19:48.754Z,98325.77
2022-09-16T02:22:26.442Z,98331.02
2022-09-16T02:25:01.302Z,98336.97
2022-09-16T02:27:35.240Z,98330.13
2022-09-16T02:30:10.565Z,98334.67
2022-09-16T02:32:45.560Z,98332.39
2022-09-16T02:35:20.313Z,98338.95
2022-09-16T02:38:04.171Z,98335.96
2022-09-16T02:40:42.241Z,98328.80
2022-09-16T02:43:14.426Z,98330.23
2022-09-16T02:45:55.390Z,98323.73
2022-09-16T02:48:36.257Z,98315.59
2022-09-16T02:51:27.519Z,98326.56
2022-09-16T02:54:02.449Z,98324.42
2022-09-16T02:56:37.442Z,98312.81
2022-09-16T02:59:12.464Z,98319.48
2022-09-16T03:01:47.432Z,98314.80
2022-09-16T03:04:21.496Z,98311.92
2022-09-16T03:06:53.375Z,98320.39
2022-09-16T03:09:26.192Z,98307.96
2022-09-16T03:12:25.308Z,98307.84
2022-09-16T03:15:24.228Z,98303.98
2022-09-16T03:17:59.419Z,98304.03
2022-09-16T03:20:43.369Z,98304.62
2022-09-16T03:23:45.554Z,98301.47
2022-09-16T03:26:23.360Z,98295.70
2022-09-16T03:29:18.099Z,98303.07
2022-09-16T03:32:21.480Z,98303.63
2022-09-16T03:34:59.300Z,98299.78
2022-09-16T03:37:35.906Z,98294.14
2022-09-16T03:40:11.290Z,98301.78
2022-09-16T03:42:44.907Z,98309.27
2022-09-16T03:45:22.363Z,98311.66
2022-09-16T03:47:55.221Z,98310.42
2022-09-16T03:50:27.304Z,98308.36
2022-09-16T03:52:59.242Z,98311.58
2022-09-16T03:55:31.521Z,98304.36
2022-09-16T03:58:03.871Z,98311.16
2022-09-16T04:00:37.083Z,98311.04
2022-09-16T04:03:09.141Z,98310.66
2022-09-16T04:05:41.218Z,98306.08
2022-09-16T04:08:13.855Z,98303.05
2022-09-16T04:11:00.165Z,98309.01
2022-09-16T04:13:34.701Z,98313.92
2022-09-16T04:16:07.176Z,98318.09
2022-09-16T04:18:39.297Z,98314.09
2022-09-16T04:21:11.666Z,98316.34
2022-09-16T04:23:43.792Z,98314.27
2022-09-16T04:26:15.819Z,98314.95
2022-09-16T04:28:49.536Z,98311.92
2022-09-16T04:31:22.129Z,98302.65
2022-09-16T04:33:54.178Z,98310.98
2022-09-16T04:36:26.213Z,98312.25
2022-09-16T04:38:58.298Z,98312.94
2022-09-16T04:41:30.365Z,98317.13
2022-09-16T04:44:02.635Z,98304.91
2022-09-16T04:46:35.144Z,98307.84
2022-09-16T04:49:07.464Z,98298.00
2022-09-16T04:51:39.962Z,98302.98
2022-09-16T04:54:12.416Z,98300.21
2022-09-16T04:56:44.453Z,98294.94
2022-09-16T04:59:16.533Z,98289.53
2022-09-16T05:01:48.660Z,98295.78
2022-09-16T05:04:20.637Z,98281.61
2022-09-16T05:06:53.039Z,98281.61
2022-09-16T05:09:25.021Z,98277.86
2022-09-16T05:11:57.233Z,98277.86
2022-09-16T05:14:29.333Z,98290.24
2022-09-16T05:17:01.842Z,98292.45
2022-09-16T05:19:34.051Z,98282.16
2022-09-16T05:22:08.142Z,98277.73
2022-09-16T05:24:40.219Z,98273.00
2022-09-16T05:27:12.169Z,98256.77
2022-09-16T05:29:44.100Z,98256.77
2022-09-16T05:32:16.179Z,98271.34
2022-09-16T05:34:49.754Z,98276.22
2022-09-16T05:37:21.726Z,98267.19
2022-09-16T05:39:54.381Z,98263.00
2022-09-16T05:42:26.883Z,98258.84
2022-09-16T05:44:59.311Z,98256.75
2022-09-16T05:47:32.791Z,98256.75
2022-09-16T05:50:05.227Z,98258.66
2022-09-16T05:52:37.458Z,98253.33
2022-09-16T05:55:09.667Z,98255.06
2022-09-16T05:57:41.680Z,98253.61
2022-09-16T06:00:14.616Z,98256.88
2022-09-16T06:02:48.448Z,98232.95
2022-09-16T06:05:20.565Z,98232.95
2022-09-16T06:07:54.114Z,98255.95
2022-09-16T06:10:26.680Z,98257.60
2022-09-16T06:12:58.760Z,98243.72
2022-09-16T06:15:31.648Z,98249.81
2022-09-16T06:18:06.577Z,98227.91
2022-09-16T06:20:38.480Z,98252.31
2022-09-16T06:23:10.497Z,98247.72
2022-09-16T06:25:42.465Z,98248.25
2022-09-16T06:28:15.080Z,98246.71
2022-09-16T06:30:47.619Z,98255.41
2022-09-16T06:33:19.688Z,98249.44
2022-09-16T06:35:53.565Z,98236.90
2022-09-16T06:38:25.987Z,98229.45
2022-09-16T06:41:09.595Z,98227.45
2022-09-16T06:43:41.866Z,98222.14
2022-09-16T06:46:16.876Z,98215.28
2022-09-16T06:48:51.349Z,98218.48
2022-09-16T06:51:25.694Z,98221.67
2022-09-16T06:54:03.781Z,98220.72
2022-09-16T06:56:37.979Z,98223.55
2022-09-16T06:59:13.044Z,98210.52
2022-09-16T07:01:45.064Z,98210.36
2022-09-16T07:04:17.151Z,98217.19
2022-09-16T07:07:08.836Z,98223.04
2022-09-16T07:09:24.811Z,98212.34
2022-09-16T07:11:56.873Z,98223.31
2022-09-16T07:14:32.117Z,98213.19
2022-09-16T07:17:04.232Z,98212.19
2022-09-16T07:19:36.822Z,98212.82
2022-09-16T07:22:09.246Z,98217.99
2022-09-16T07:24:41.510Z,98206.84
2022-09-16T07:27:13.594Z,98207.64
2022-09-16T07:29:46.086Z,98203.14
2022-09-16T07:32:18.339Z,98205.95
2022-09-16T07:34:50.632Z,98201.11
2022-09-16T07:37:23.594Z,98201.94
2022-09-16T07:39:55.858Z,98199.78
2022-09-16T07:42:29.266Z,98186.04
2022-09-16T07:45:01.423Z,98183.26
2022-09-16T07:47:34.084Z,98178.45
2022-09-16T07:50:07.232Z,98187.23
2022-09-16T07:52:39.234Z,98178.73
2022-09-16T07:55:12.962Z,98175.42
2022-09-16T07:57:45.106Z,98176.59
2022-09-16T08:00:17.315Z,98168.00
2022-09-16T08:02:49.409Z,98160.48
2022-09-16T08:05:21.532Z,98157.63
2022-09-16T08:07:53.924Z,98155.66
2022-09-16T08:10:29.198Z,98158.45
2022-09-16T08:13:00.265Z,98152.38
2022-09-16T08:15:32.389Z,98156.69
2022-09-16T08:18:05.202Z,98150.09
2022-09-16T08:20:38.581Z,98149.31
2022-09-16T08:23:10.933Z,98145.02
2022-09-16T08:25:42.997Z,98140.71
2022-09-16T08:28:18.562Z,98142.45
2022-09-16T08:30:53.210Z,98139.33
2022-09-16T08:33:25.978Z,98135.37
2022-09-16T08:36:10.201Z,98129.92
2022-09-16T08:38:43.031Z,98121.56
2022-09-16T08:41:36.452Z,98124.31
2022-09-16T08:44:32.655Z,98119.99
2022-09-16T08:47:08.150Z,98119.59
2022-09-16T08:49:47.015Z,98123.72
2022-09-16T08:52:34.276Z,98121.66
2022-09-16T08:55:15.461Z,98121.61
2022-09-16T08:57:56.279Z,98116.86
2022-09-16T09:00:28.464Z,98110.36
2022-09-16T09:03:31.978Z,98112.00
2022-09-16T09:06:09.894Z,98111.77
2022-09-16T09:08:44.986Z,98110.43
2022-09-16T09:11:19.906Z,98114.56
2022-09-16T09:14:24.009Z,98105.95
2022-09-16T09:17:20.168Z,98109.14
2022-09-16T09:20:01.264Z,98104.78
2022-09-16T09:23:00.322Z,98111.48
2022-09-16T09:25:53.620Z,98114.25
2022-09-16T09:28:37.428Z,98109.75
2022-09-16T09:31:21.451Z,98106.52
2022-09-16T09:33:56.304Z,98116.88
2022-09-16T09:36:31.452Z,98110.49
2022-09-16T09:39:09.218Z,98114.69
2022-09-16T09:41:53.032Z,98103.75
2022-09-16T09:44:49.059Z,98101.14
2022-09-16T09:47:36.321Z,98091.19
2022-09-16T09:50:27.588Z,98093.11
2022-09-16T09:53:14.417Z,98087.48
2022-09-16T09:55:46.831Z,98089.62
2022-09-16T09:58:40.504Z,98087.41
2022-09-16T10:01:13.342Z,98090.92
2022-09-16T10:03:45.502Z,98088.66
2022-09-16T10:06:19.788Z,98079.53
2022-09-16T10:08:54.660Z,98074.87
2022-09-16T10:11:31.325Z,98073.33
2022-09-16T10:14:05.884Z,98076.52
2022-09-16T10:16:38.195Z,98075.44
2022-09-16T10:19:21.303Z,98077.08
2022-09-16T10:21:59.210Z,98066.48
2022-09-16T10:24:36.604Z,98066.55
2022-09-16T10:27:26.999Z,98061.09
2022-09-16T10:30:17.132Z,98060.00
2022-09-16T10:33:01.585Z,98067.77
2022-09-16T10:35:36.508Z,98053.45
2022-09-16T10:38:14.757Z,98045.38
2022-09-16T10:40:55.429Z,98040.31
2022-09-16T10:43:29.873Z,98043.34
2022-09-16T10:46:02.124Z,98046.49
2022-09-16T10:48:36.530Z,98050.87
2022-09-16T10:51:11.492Z,98041.77
2022-09-16T10:53:46.847Z,98050.50
2022-09-16T10:56:22.540Z,98052.90
2022-09-16T10:59:06.729Z,98040.50
2022-09-16T11:01:44.676Z,98026.52
2022-09-16T11:04:34.871Z,98026.52
2022-09-16T11:07:15.676Z,98031.41
2022-09-16T11:09:56.446Z,98039.05
2022-09-16T11:12:53.984Z,98033.30
2022-09-16T11:15:44.063Z,98029.83
2022-09-16T11:18:35.511Z,98016.49
2022-09-16T11:21:35.983Z,98025.94
2022-09-16T11:24:28.829Z,98022.41
2022-09-16T11:27:31.076Z,98010.81
2022-09-16T11:30:17.879Z,98008.54
2022-09-16T11:33:07.755Z,98002.09
2022-09-16T11:35:59.349Z,98006.75
2022-09-16T11:38:50.790Z,98010.15
2022-09-16T11:41:48.320Z,98008.33
2022-09-16T11:44:47.073Z,98005.03
2022-09-16T11:47:21.808Z,97997.79
2022-09-16T11:50:08.660Z,97994.48
2022-09-16T11:53:01.438Z,97986.52
2022-09-16T11:55:41.086Z,97979.56
2022-09-16T11:58:51.060Z,97982.85
2022-09-16T12:01:42.766Z,97970.02
2022-09-16T12:04:17.899Z,97970.92
2022-09-16T12:06:53.647Z,97963.92
2022-09-16T12:09:34.492Z,97971.70
2022-09-16T12:12:12.173Z,97974.66
2022-09-16T12:14:53.694Z,97968.47
2022-09-16T12:17:28.545Z,97967.05
2022-09-16T12:20:06.457Z,97970.55
2022-09-16T12:22:47.304Z,97970.16
2022-09-16T12:25:22.604Z,97965.19
2022-09-16T12:28:00.362Z,97958.58
2022-09-16T12:30:41.326Z,97954.39
2022-09-16T12:33:19.833Z,97958.34
2022-09-16T12:36:06.747Z,97961.22
2022-09-16T12:38:40.211Z,97952.16
2022-09-16T12:41:33.161Z,97959.22
2022-09-16T12:44:36.835Z,97953.60
2022-09-16T12:47:18.152Z,97952.31
2022-09-16T12:50:05.241Z,97958.52
2022-09-16T12:52:52.321Z,97965.69
2022-09-16T12:55:33.264Z,97962.19
2022-09-16T12:58:14.220Z,97957.58
2022-09-16T13:01:16.670Z,97961.72
2022-09-16T13:03:58.359Z,97966.34
2022-09-16T13:06:33.768Z,97964.86
2022-09-16T13:09:40.339Z,97974.48
2022-09-16T13:12:39.174Z,97969.02
2022-09-16T13:15:07.437Z,97971.31
2022-09-16T13:17:41.688Z,97960.53
2022-09-16T13:20:14.714Z,97957.39
2022-09-16T13:22:49.646Z,97968.03
2022-09-16T13:25:36.658Z,97965.03
2022-09-16T13:28:28.548Z,97965.66
2022-09-16T13:31:18.768Z,97968.82
2022-09-16T13:33:59.997Z,97966.00
2022-09-16T13:36:34.123Z,97969.09
2022-09-16T13:39:09.220Z,97965.23
2022-09-16T13:41:48.152Z,97965.23
2022-09-16T13:44:42.356Z,97978.77
2022-09-16T13:47:22.901Z,97979.58
2022-09-16T13:50:12.171Z,97974.94
2022-09-16T13:52:47.231Z,97975.25
2022-09-16T13:55:24.103Z,97970.58
2022-09-16T13:58:32.646Z,97971.07
2022-09-16T14:01:15.340Z,97965.59
2022-09-16T14:04:23.123Z,97958.42
2022-09-16T14:07:23.589Z,97964.20
2022-09-16T14:10:16.909Z,97960.52
2022-09-16T14:13:11.245Z,97944.14
2022-09-16T14:15:46.957Z,97952.23
2022-09-16T14:18:24.222Z,97949.74
2022-09-16T14:21:02.407Z,97962.46
2022-09-16T14:23:36.530Z,97954.33
2022-09-16T14:26:15.342Z,97956.28
2022-09-16T14:28:48.651Z,97964.70
2022-09-16T14:31:27.042Z,97959.72
2022-09-16T14:34:05.311Z,97959.72
2022-09-16T14:36:44.517Z,97959.99
2022-09-16T14:39:20.373Z,97975.35
2022-09-16T14:41:56.046Z,97974.45
2022-09-16T14:44:46.985Z,97974.24
2022-09-16T14:47:39.709Z,97954.41
2022-09-16T14:50:04.467Z,97954.41
2022-09-16T14:52:37.953Z,97960.75
2022-09-16T14:55:23.202Z,97956.25
2022-09-16T14:57:57.725Z,97946.42
2022-09-16T15:00:33.357Z,97945.91
2022-09-16T15:03:20.205Z,97936.77
2022-09-16T15:05:59.281Z,97946.13
2022-09-16T15:08:47.333Z,97942.98
2022-09-16T15:11:48.651Z,97936.70
2022-09-16T15:14:14.749Z,97935.20
2022-09-16T15:16:50.252Z,97933.55
2022-09-16T15:19:31.257Z,97932.71
2022-09-16T15:22:11.606Z,97912.80
2022-09-16T15:24:46.133Z,97922.77
2022-09-16T15:27:31.799Z,97929.84
2022-09-16T15:30:06.047Z,97931.97
2022-09-16T15:32:39.521Z,97929.77
2022-09-16T15:35:27.116Z,97920.34
2022-09-16T15:37:59.993Z,97918.84
2022-09-16T15:40:36.124Z,97922.77
2022-09-16T15:43:23.597Z,97922.55
2022-09-16T15:46:02.259Z,97917.27
2022-09-16T15:48:38.412Z,97904.02
2022-09-16T15:51:14.239Z,97904.02
2022-09-16T15:53:50.539Z,97881.75
2022-09-16T15:56:26.399Z,97898.07
2022-09-16T15:59:13.824Z,97907.93
2022-09-16T16:01:53.443Z,97907.93
2022-09-16T16:04:36.472Z,97901.98
2022-09-16T16:07:09.109Z,97907.93
2022-09-16T16:09:44.616Z,97908.22
2022-09-16T16:12:19.067Z,97903.94
2022-09-16T16:14:51.951Z,97899.64
2022-09-16T16:17:28.762Z,97896.71
2022-09-16T16:20:03.509Z,97902.80
2022-09-16T16:22:36.449Z,97895.88
2022-09-16T16:25:10.264Z,97896.71
2022-09-16T16:27:42.863Z,97875.52
2022-09-16T16:30:16.094Z,97895.08
2022-09-16T16:32:50.848Z,97888.03
2022-09-16T16:35:28.486Z,97872.34
2022-09-16T16:38:00.844Z,97872.34
2022-09-16T16:40:34.499Z,97873.19
2022-09-16T16:43:07.075Z,97879.97
2022-09-16T16:45:41.599Z,97879.97
2022-09-16T16:48:20.565Z,97875.23
2022-09-16T16:51:02.074Z,97868.97
2022-09-16T16:53:35.886Z,97865.52
2022-09-16T16:56:14.876Z,97856.06
2022-09-16T16:58:47.516Z,97867.02
2022-09-16T17:01:21.472Z,97858.66
2022-09-16T17:03:53.917Z,97856.69
2022-09-16T17:06:27.032Z,97861.97
2022-09-16T17:09:00.241Z,97870.88
2022-09-16T17:11:34.297Z,97870.88
2022-09-16T17:14:08.980Z,97878.47
2022-09-16T17:16:43.793Z,97887.23
2022-09-16T17:19:18.899Z,97876.67
2022-09-16T17:21:54.672Z,97857.72
2022-09-16T17:24:27.688Z,97857.72
2022-09-16T17:27:00.504Z,97876.96
2022-09-16T17:29:33.675Z,97878.47
2022-09-16T17:32:08.802Z,97859.62
2022-09-16T17:34:44.617Z,97859.62
2022-09-16T17:37:20.161Z,97853.75
2022-09-16T17:39:54.771Z,97873.59
2022-09-16T17:42:28.100Z,97873.73
2022-09-16T17:45:03.414Z,97873.73
2022-09-16T17:47:38.810Z,97868.45
2022-09-16T17:50:13.018Z,97863.17
2022-09-16T17:52:46.723Z,97869.81
2022-09-16T17:55:19.377Z,97862.19
2022-09-16T17:57:52.604Z,97874.09
2022-09-16T18:00:25.488Z,97874.47
2022-09-16T18:02:58.321Z,97875.67
2022-09-16T18:05:33.585Z,97872.88
2022-09-16T18:08:07.948Z,97868.80
2022-09-16T18:10:40.368Z,97874.23
2022-09-16T18:13:12.598Z,97881.14
2022-09-16T18:15:45.648Z,97870.16
2022-09-16T18:18:18.458Z,97858.33
2022-09-16T18:20:56.837Z,97858.33
2022-09-16T18:23:29.054Z,97855.61
2022-09-16T18:26:10.201Z,97841.14
2022-09-16T18:29:08.600Z,97852.88
2022-09-16T18:31:24.820Z,97858.16
2022-09-16T18:33:57.928Z,97852.36
2022-09-16T18:36:31.035Z,97862.08
2022-09-16T18:39:11.230Z,97848.20
2022-09-16T18:41:45.919Z,97861.77
2022-09-16T18:44:26.006Z,97861.77
2022-09-16T18:46:58.505Z,97877.54
2022-09-16T18:49:31.790Z,97876.03
2022-09-16T18:52:05.029Z,97872.73
2022-09-16T18:54:38.085Z,97868.55
2022-09-16T18:57:12.986Z,97870.53
2022-09-16T18:59:45.978Z,97878.31
2022-09-16T19:02:18.188Z,97867.13
2022-09-16T19:04:55.148Z,97865.25
2022-09-16T19:07:28.248Z,97873.75
2022-09-16T19:10:00.708Z,97874.87
2022-09-16T19:12:38.449Z,97874.45
2022-09-16T19:15:09.329Z,97863.89
2022-09-16T19:17:42.604Z,97867.60
2022-09-16T19:20:15.195Z,97868.41
2022-09-16T19:22:48.030Z,97876.73
2022-09-16T19:25:22.834Z,97878.53
2022-09-16T19:27:55.137Z,97875.89
2022-09-16T19:30:27.426Z,97873.25
2022-09-16T19:33:01.265Z,97874.09
2022-09-16T19:35:34.579Z,97863.89
2022-09-16T19:38:07.348Z,97881.54
2022-09-16T19:40:39.599Z,97864.18
2022-09-16T19:43:12.445Z,97864.18
2022-09-16T19:45:44.859Z,97884.56
2022-09-16T19:48:18.033Z,97889.98
2022-09-16T19:50:53.909Z,97885.98
2022-09-16T19:53:25.919Z,97882.80
2022-09-16T19:55:59.638Z,97882.80
2022-09-16T19:58:33.444Z,97870.64
2022-09-16T20:01:08.898Z,97883.34
2022-09-16T20:03:44.287Z,97898.34
2022-09-16T20:06:24.973Z,97904.59
2022-09-16T20:08:59.896Z,97897.34
2022-09-16T20:11:35.006Z,97901.81
2022-09-16T20:14:09.626Z,97912.23
2022-09-16T20:16:42.244Z,97905.44
2022-09-16T20:19:16.235Z,97918.31
2022-09-16T20:21:48.701Z,97918.08
2022-09-16T20:24:23.692Z,97921.00
2022-09-16T20:26:57.434Z,97917.98
2022-09-16T20:29:30.931Z,97921.89
2022-09-16T20:32:03.211Z,97925.80
2022-09-16T20:34:37.409Z,97925.80
2022-09-16T20:37:10.336Z,97929.70
2022-09-16T20:39:44.977Z,97936.39
2022-09-16T20:42:17.336Z,97935.02
2022-09-16T20:44:49.780Z,97935.76
2022-09-16T20:47:22.338Z,97939.94
2022-09-16T20:49:54.482Z,97939.69
2022-09-16T20:52:27.062Z,97950.13
2022-09-16T20:55:02.690Z,97943.06
2022-09-16T20:57:35.506Z,97952.62
2022-09-16T21:00:08.314Z,97952.48
2022-09-16T21:02:40.841Z,97954.44
2022-09-16T21:05:13.423Z,97959.71
2022-09-16T21:07:45.752Z,97957.75
2022-09-16T21:10:18.375Z,97959.41
2022-09-16T21:12:51.179Z,97955.81
2022-09-16T21:15:24.934Z,97964.40
2022-09-16T21:17:57.139Z,97961.62
2022-09-16T21:20:31.011Z,97957.73
2022-09-16T21:23:04.353Z,97969.64
2022-09-16T21:25:36.644Z,97973.37
2022-09-16T21:28:08.900Z,97966.53
2022-09-16T21:30:41.076Z,97968.04
2022-09-16T21:33:14.588Z,97974.69
2022-09-16T21:35:54.126Z,97967.33
2022-09-16T21:38:28.323Z,97972.47
2022-09-16T21:41:02.988Z,97982.84
2022-09-16T21:43:38.149Z,97980.06
2022-09-16T21:46:14.099Z,97982.03
2022-09-16T21:48:46.313Z,97987.84
2022-09-16T21:51:20.270Z,97992.97
2022-09-16T21:53:52.279Z,97998.35
2022-09-16T21:56:24.896Z,98000.15
2022-09-16T21:58:58.437Z,98000.99
2022-09-16T22:01:31.746Z,97993.61
2022-09-16T22:04:06.621Z,98004.86
2022-09-16T22:06:38.484Z,98005.84
2022-09-16T22:09:11.858Z,98005.84
2022-09-16T22:11:44.394Z,98000.15
2022-09-16T22:14:16.480Z,98007.95
2022-09-16T22:16:48.405Z,98020.62
2022-09-16T22:19:21.020Z,98014.81
2022-09-16T22:21:53.093Z,98008.97
2022-09-16T22:24:25.292Z,98005.41
2022-09-16T22:26:57.478Z,98014.33
2022-09-16T22:29:29.422Z,98009.92
2022-09-16T22:32:03.034Z,98014.36
2022-09-16T22:34:36.929Z,98016.34
2022-09-16T22:37:10.691Z,98022.45
2022-09-16T22:39:42.718Z,98029.52
2022-09-16T22:42:14.767Z,98031.17
2022-09-16T22:44:47.007Z,98033.50
2022-09-16T22:47:19.275Z,98033.94
2022-09-16T22:49:51.290Z,98043.63
2022-09-16T22:52:23.561Z,98044.52
2022-09-16T22:54:55.722Z,98042.15
2022-09-16T22:57:27.710Z,98041.58
2022-09-16T23:00:00.036Z,98046.30
2022-09-16T23:02:33.456Z,98037.83
2022-09-16T23:05:07.517Z,98040.02
2022-09-16T23:07:39.942Z,98040.86
2022-09-16T23:10:12.147Z,98044.05
2022-09-16T23:12:44.306Z,98043.78
2022-09-16T23:15:16.329Z,98042.39
2022-09-16T23:17:48.437Z,98051.80
2022-09-16T23:20:20.508Z,98060.09
2022-09-16T23:22:52.531Z,98063.95
2022-09-16T23:25:24.781Z,98060.64
2022-09-16T23:27:56.672Z,98063.95
2022-09-16T23:30:28.632Z,98065.35
2022-09-16T23:33:00.611Z,98053.03
2022-09-16T23:35:32.602Z,98054.95
2022-09-16T23:38:04.578Z,98060.91
2022-09-16T23:40:38.323Z,98062.14
2022-09-16T23:43:10.306Z,98062.41
2022-09-16T23:45:42.945Z,98063.25
2022-09-16T23:48:15.312Z,98062.11
2022-09-16T23:50:47.265Z,98056.98
2022-09-16T23:53:19.318Z,98058.93
2022-09-16T23:55:51.286Z,98056.30
2022-09-16T23:58:23.435Z,98056.81
